Time,TemperatureF,DewpointF,PressureIn,WindDirection,WindDirectionDegrees,WindSpeedMPH,WindSpeedGustMPH,Humidity,HourlyPrecipIn,Conditions,Clouds,dailyrainin,SolarRadiationWatts/m^2,SoftwareType,DateUTC
2013-07-18 00:12:00,66.0,57.0,-100.00,SSE,148,6.0,10.0,73,-99.99,,,-99.99,0.000000,,2013-07-18 06:12:00,
2013-07-18 00:22:00,66.0,57.0,-100.00,SSE,149,7.0,10.0,74,-99.99,,,-99.99,0.000000,,2013-07-18 06:22:00,
2013-07-18 00:32:00,66.0,57.0,-100.00,SSE,149,7.0,10.0,74,-99.99,,,-99.99,0.000000,,2013-07-18 06:32:00,
2013-07-18 00:43:00,65.0,57.0,-100.00,SE,130,8.0,17.0,74,-99.99,,,-99.99,0.000000,,2013-07-18 06:43:00,
2013-07-18 00:52:00,65.0,58.0,-100.00,SE,133,10.0,17.0,76,-99.99,,,-99.99,0.000000,,2013-07-18 06:52:00,
2013-07-18 01:00:00,63.0,59.0,-100.00,SSE,151,8.0,13.0,86,-99.99,,,-99.99,0.000000,,2013-07-18 07:00:00,
2013-07-18 01:01:00,65.0,58.0,-100.00,SE,133,10.0,17.0,76,-99.99,,,-99.99,0.000000,,2013-07-18 07:01:00,
2013-07-18 01:11:00,65.0,58.0,-100.00,SSE,152,9.0,13.0,79,-99.99,,,-99.99,0.000000,,2013-07-18 07:11:00,
2013-07-18 01:22:00,63.0,59.0,-100.00,SSE,151,8.0,13.0,86,-99.99,,,-99.99,0.000000,,2013-07-18 07:22:00,
2013-07-18 01:32:00,63.0,59.0,-100.00,SSE,151,8.0,13.0,86,-99.99,,,-99.99,0.000000,,2013-07-18 07:32:00,
2013-07-18 01:42:00,63.0,59.0,-100.00,SSE,151,8.0,13.0,86,-99.99,,,-99.99,0.000000,,2013-07-18 07:42:00,
2013-07-18 01:52:00,63.0,59.0,-100.00,SSE,151,8.0,13.0,86,-99.99,,,-99.99,0.000000,,2013-07-18 07:52:00,
2013-07-18 04:43:00,62.0,60.0,-100.00,WNW,298,2.0,3.0,91,-99.99,,,-99.99,0.000000,,2013-07-18 10:43:00,
2013-07-18 05:01:00,62.0,60.0,-100.00,WSW,253,1.0,2.0,91,-99.99,,,-99.99,0.000000,,2013-07-18 11:01:00,
2013-07-18 05:11:00,63.0,60.0,-100.00,SSE,158,3.0,8.0,89,-99.99,,,-99.99,0.000000,,2013-07-18 11:11:00,
2013-07-18 05:22:00,63.0,59.0,-100.00,SE,127,4.0,8.0,86,-99.99,,,-99.99,0.000000,,2013-07-18 11:22:00,
2013-07-18 05:32:00,63.0,59.0,-100.00,SE,127,4.0,8.0,86,-99.99,,,-99.99,0.000000,,2013-07-18 11:32:00,
2013-07-18 05:43:00,63.0,59.0,-100.00,SE,135,5.0,10.0,86,-99.99,,,-99.99,0.000000,,2013-07-18 11:43:00,
2013-07-18 05:52:00,63.0,59.0,-100.00,SE,135,5.0,10.0,86,-99.99,,,-99.99,0.000000,,2013-07-18 11:52:00,
2013-07-18 06:01:00,63.0,59.0,-100.00,SE,135,5.0,10.0,86,-99.99,,,-99.99,0.000000,,2013-07-18 12:01:00,
2013-07-18 06:11:00,63.0,59.0,-100.00,SE,135,3.0,6.0,87,-99.99,,,-99.99,0.000000,,2013-07-18 12:11:00,
2013-07-18 06:32:00,63.0,59.0,-100.00,SE,138,2.0,4.0,87,-99.99,,,-99.99,0.000000,,2013-07-18 12:32:00,
2013-07-18 06:42:00,63.0,60.0,-100.00,SE,144,2.0,4.0,87,-99.99,,,-99.99,0.000000,,2013-07-18 12:42:00,
2013-07-18 06:52:00,63.0,59.0,-100.00,SE,143,5.0,8.0,86,-99.99,,,-99.99,2.090000,,2013-07-18 12:52:00,
2013-07-18 07:01:00,63.0,59.0,-100.00,SE,143,5.0,8.0,86,-99.99,,,-99.99,2.090000,,2013-07-18 13:01:00,
2013-07-18 07:11:00,63.0,59.0,-100.00,SE,143,2.0,6.0,86,-99.99,,,-99.99,7.670000,,2013-07-18 13:11:00,
2013-07-18 07:32:00,63.0,59.0,-100.00,East,84,2.0,3.0,86,-99.99,,,-99.99,14.640000,,2013-07-18 13:32:00,
2013-07-18 07:43:00,63.0,59.0,-100.00,ESE,104,3.0,5.0,86,-99.99,,,-99.99,16.040001,,2013-07-18 13:43:00,
2013-07-18 08:11:00,63.0,60.0,-100.00,SE,128,5.0,8.0,87,-99.99,,,-99.99,19.530001,,2013-07-18 14:11:00,
2013-07-18 08:22:00,63.0,59.0,-100.00,SE,127,4.0,7.0,87,-99.99,,,-99.99,18.129999,,2013-07-18 14:22:00,
2013-07-18 08:33:00,63.0,59.0,-100.00,SE,127,4.0,7.0,87,-99.99,,,-99.99,18.129999,,2013-07-18 14:33:00,
2013-07-18 08:43:00,63.0,59.0,-100.00,SE,138,4.0,6.0,87,-99.99,,,-99.99,21.620001,,2013-07-18 14:43:00,
2013-07-18 08:53:00,63.0,60.0,-100.00,SE,124,5.0,7.0,88,-99.99,,,-99.99,29.290001,,2013-07-18 14:53:00,
2013-07-18 09:01:00,63.0,60.0,-100.00,SE,124,5.0,7.0,88,-99.99,,,-99.99,29.290001,,2013-07-18 15:01:00,
2013-07-18 09:11:00,63.0,60.0,-100.00,ESE,115,5.0,7.0,89,-99.99,,,-99.99,39.750000,,2013-07-18 15:11:00,
2013-07-18 09:22:00,63.0,60.0,-100.00,SE,128,5.0,8.0,90,-99.99,,,-99.99,32.770000,,2013-07-18 15:22:00,
2013-07-18 09:32:00,63.0,60.0,-100.00,SE,128,5.0,8.0,90,-99.99,,,-99.99,32.770000,,2013-07-18 15:32:00,
2013-07-18 09:42:00,62.0,60.0,-100.00,SSE,158,4.0,6.0,93,-99.99,,,-99.99,42.540001,,2013-07-18 15:42:00,
2013-07-18 09:53:00,61.0,60.0,-100.00,ESE,119,3.0,8.0,94,-99.99,,,-99.99,64.849998,,2013-07-18 15:53:00,
2013-07-18 10:01:00,61.0,60.0,-100.00,ESE,119,3.0,8.0,94,-99.99,,,-99.99,64.849998,,2013-07-18 16:01:00,
2013-07-18 10:11:00,61.0,59.0,-100.00,SSE,160,2.0,5.0,93,-99.99,,,-99.99,55.090000,,2013-07-18 16:11:00,
2013-07-18 10:22:00,61.0,59.0,-100.00,SSE,160,2.0,5.0,93,-99.99,,,-99.99,55.090000,,2013-07-18 16:22:00,
2013-07-18 10:32:00,61.0,59.0,-100.00,SSE,160,2.0,5.0,93,-99.99,,,-99.99,55.090000,,2013-07-18 16:32:00,
2013-07-18 10:42:00,61.0,59.0,-100.00,ESE,118,1.0,4.0,94,-99.99,,,-99.99,60.669998,,2013-07-18 16:42:00,
2013-07-18 10:52:00,62.0,60.0,-100.00,ENE,72,2.0,5.0,93,-99.99,,,-99.99,73.220001,,2013-07-18 16:52:00,
2013-07-18 11:02:00,62.0,60.0,-100.00,ENE,72,2.0,5.0,93,-99.99,,,-99.99,73.220001,,2013-07-18 17:02:00,
2013-07-18 11:11:00,63.0,59.0,-100.00,ESE,115,3.0,6.0,89,-99.99,,,-99.99,91.349998,,2013-07-18 17:11:00,
2013-07-18 11:22:00,63.0,59.0,-100.00,SE,125,4.0,6.0,87,-99.99,,,-99.99,76.010002,,2013-07-18 17:22:00,
2013-07-18 11:33:00,63.0,59.0,-100.00,SE,125,4.0,6.0,87,-99.99,,,-99.99,76.010002,,2013-07-18 17:33:00,
2013-07-18 11:43:00,63.0,59.0,-100.00,SE,131,4.0,7.0,86,-99.99,,,-99.99,82.290001,,2013-07-18 17:43:00,
2013-07-18 12:01:00,64.0,60.0,-100.00,SE,125,4.0,6.0,86,-99.99,,,-99.99,112.269997,,2013-07-18 18:01:00,
2013-07-18 12:11:00,64.0,60.0,-100.00,SE,145,3.0,5.0,87,-99.99,,,-99.99,181.309998,,2013-07-18 18:11:00,
2013-07-18 12:32:00,64.0,60.0,-100.00,South,177,3.0,7.0,85,-99.99,,,-99.99,201.529999,,2013-07-18 18:32:00,
2013-07-18 12:43:00,65.0,60.0,-100.00,South,185,1.0,5.0,83,-99.99,,,-99.99,174.330002,,2013-07-18 18:43:00,
2013-07-18 12:52:00,65.0,60.0,-100.00,SE,125,4.0,7.0,82,-99.99,,,-99.99,159.690002,,2013-07-18 18:52:00,
2013-07-18 13:02:00,65.0,60.0,-100.00,SE,125,4.0,7.0,82,-99.99,,,-99.99,159.690002,,2013-07-18 19:02:00,
2013-07-18 13:11:00,65.0,60.0,-100.00,SSE,152,4.0,8.0,82,-99.99,,,-99.99,164.570007,,2013-07-18 19:11:00,
2013-07-18 13:22:00,66.0,60.0,-100.00,ESE,109,3.0,9.0,81,-99.99,,,-99.99,203.619995,,2013-07-18 19:22:00,
2013-07-18 13:32:00,66.0,60.0,-100.00,ESE,109,3.0,9.0,81,-99.99,,,-99.99,203.619995,,2013-07-18 19:32:00,
2013-07-18 13:43:00,67.0,60.0,-100.00,South,169,2.0,5.0,78,-99.99,,,-99.99,260.799988,,2013-07-18 19:43:00,
2013-07-18 13:53:00,67.0,60.0,-100.00,SSW,207,2.0,6.0,78,-99.99,,,-99.99,273.350006,,2013-07-18 19:53:00,
2013-07-18 14:01:00,67.0,60.0,-100.00,SSW,207,2.0,6.0,78,-99.99,,,-99.99,273.350006,,2013-07-18 20:01:00,
2013-07-18 14:11:00,67.0,60.0,-100.00,SE,128,4.0,8.0,78,-99.99,,,-99.99,238.490005,,2013-07-18 20:11:00,
2013-07-18 14:22:00,68.0,60.0,-100.00,ESE,117,3.0,6.0,77,-99.99,,,-99.99,294.970001,,2013-07-18 20:22:00,
2013-07-18 14:32:00,68.0,60.0,-100.00,ESE,117,3.0,6.0,77,-99.99,,,-99.99,294.970001,,2013-07-18 20:32:00,
2013-07-18 14:43:00,69.0,61.0,-100.00,SE,137,1.0,5.0,74,-99.99,,,-99.99,427.470001,,2013-07-18 20:43:00,
2013-07-18 14:52:00,70.0,61.0,-100.00,ENE,72,2.0,6.0,72,-99.99,,,-99.99,274.049988,,2013-07-18 20:52:00,
2013-07-18 15:01:00,70.0,61.0,-100.00,ENE,72,2.0,6.0,72,-99.99,,,-99.99,274.049988,,2013-07-18 21:01:00,
2013-07-18 15:11:00,69.0,60.0,-100.00,SE,132,4.0,9.0,73,-99.99,,,-99.99,361.220001,,2013-07-18 21:11:00,
2013-07-18 15:22:00,70.0,60.0,-100.00,ESE,121,5.0,10.0,71,-99.99,,,-99.99,357.029999,,2013-07-18 21:22:00,
2013-07-18 15:32:00,70.0,60.0,-100.00,ESE,121,5.0,10.0,71,-99.99,,,-99.99,357.029999,,2013-07-18 21:32:00,
2013-07-18 15:43:00,69.0,60.0,-100.00,SE,144,8.0,13.0,73,-99.99,,,-99.99,140.860001,,2013-07-18 21:43:00,
2013-07-18 15:52:00,68.0,61.0,-100.00,SE,146,4.0,9.0,77,-99.99,,,-99.99,200.130005,,2013-07-18 21:52:00,
2013-07-18 16:01:00,68.0,61.0,-100.00,SE,146,4.0,9.0,77,-99.99,,,-99.99,200.130005,,2013-07-18 22:01:00,
2013-07-18 16:11:00,69.0,61.0,-100.00,South,179,1.0,5.0,76,-99.99,,,-99.99,191.070007,,2013-07-18 22:11:00,
2013-07-18 16:22:00,69.0,61.0,-100.00,SSW,202,3.0,6.0,74,-99.99,,,-99.99,168.750000,,2013-07-18 22:22:00,
2013-07-18 16:32:00,69.0,61.0,-100.00,SSW,202,3.0,6.0,74,-99.99,,,-99.99,168.750000,,2013-07-18 22:32:00,
2013-07-18 16:43:00,69.0,60.0,-100.00,South,174,3.0,6.0,73,-99.99,,,-99.99,146.440002,,2013-07-18 22:43:00,
2013-07-18 16:53:00,69.0,61.0,-100.00,SSW,206,6.0,13.0,75,-99.99,,,-99.99,138.070007,,2013-07-18 22:53:00,
2013-07-18 17:02:00,69.0,61.0,-100.00,SSW,206,6.0,13.0,75,-99.99,,,-99.99,138.070007,,2013-07-18 23:02:00,
2013-07-18 17:11:00,68.0,61.0,-100.00,SSW,213,2.0,6.0,79,-99.99,,,-99.99,193.160004,,2013-07-18 23:11:00,
2013-07-18 17:22:00,69.0,61.0,-100.00,SSE,155,3.0,6.0,74,-99.99,,,-99.99,232.910004,,2013-07-18 23:22:00,
2013-07-18 17:32:00,69.0,61.0,-100.00,SSE,155,3.0,6.0,74,-99.99,,,-99.99,232.910004,,2013-07-18 23:32:00,
2013-07-18 17:42:00,69.0,61.0,-100.00,SSE,168,5.0,8.0,75,-99.99,,,-99.99,153.410004,,2013-07-18 23:42:00,
2013-07-18 17:52:00,69.0,61.0,-100.00,SE,135,5.0,10.0,75,-99.99,,,-99.99,160.389999,,2013-07-18 23:52:00,
2013-07-18 18:01:00,69.0,61.0,-100.00,SE,135,5.0,10.0,75,-99.99,,,-99.99,160.389999,,2013-07-19 00:01:00,
2013-07-18 18:11:00,68.0,62.0,-100.00,ESE,123,7.0,12.0,79,-99.99,,,-99.99,66.940002,,2013-07-19 00:11:00,
2013-07-18 18:32:00,67.0,63.0,-100.00,East,96,7.0,14.0,87,-99.99,,,-99.99,62.759998,,2013-07-19 00:32:00,
2013-07-18 18:43:00,65.0,63.0,-100.00,East,94,6.0,9.0,93,-99.99,,,-99.99,51.599998,,2013-07-19 00:43:00,
2013-07-18 19:01:00,65.0,63.0,-100.00,ENE,76,6.0,11.0,93,-99.99,,,-99.99,35.560001,,2013-07-19 01:01:00,
2013-07-18 19:11:00,64.0,62.0,-100.00,NE,35,6.0,9.0,93,-99.99,,,-99.99,44.630001,,2013-07-19 01:11:00,
2013-07-18 19:22:00,64.0,62.0,-100.00,NNW,347,2.0,5.0,92,-99.99,,,-99.99,62.759998,,2013-07-19 01:22:00,
2013-07-18 19:32:00,64.0,62.0,-100.00,NNW,347,2.0,5.0,92,-99.99,,,-99.99,62.759998,,2013-07-19 01:32:00,
2013-07-18 19:42:00,65.0,62.0,-100.00,NNW,327,1.0,4.0,89,-99.99,,,-99.99,50.209999,,2013-07-19 01:42:00,
2013-07-18 20:01:00,66.0,62.0,-100.00,SSE,147,1.0,3.0,87,-99.99,,,-99.99,32.080002,,2013-07-19 02:01:00,
2013-07-18 20:11:00,66.0,62.0,-100.00,ESE,114,1.0,3.0,87,-99.99,,,-99.99,20.920000,,2013-07-19 02:11:00,
2013-07-18 20:22:00,66.0,62.0,-100.00,SE,132,1.0,3.0,87,-99.99,,,-99.99,9.760000,,2013-07-19 02:22:00,
2013-07-18 20:32:00,66.0,62.0,-100.00,SE,132,1.0,3.0,87,-99.99,,,-99.99,9.760000,,2013-07-19 02:32:00,
2013-07-18 20:42:00,66.0,62.0,-100.00,SE,127,1.0,3.0,88,-99.99,,,-99.99,2.090000,,2013-07-19 02:42:00,
2013-07-18 20:52:00,66.0,63.0,-100.00,SE,131,2.0,4.0,88,-99.99,,,-99.99,0.000000,,2013-07-19 02:52:00,
2013-07-18 21:01:00,66.0,63.0,-100.00,SE,131,2.0,4.0,88,-99.99,,,-99.99,0.000000,,2013-07-19 03:01:00,
2013-07-18 21:11:00,66.0,63.0,-100.00,SSE,151,4.0,6.0,90,-99.99,,,-99.99,0.000000,,2013-07-19 03:11:00,
2013-07-18 21:22:00,66.0,63.0,-100.00,SSE,162,4.0,8.0,90,-99.99,,,-99.99,0.000000,,2013-07-19 03:22:00,
2013-07-18 21:32:00,66.0,63.0,-100.00,SSE,162,4.0,8.0,90,-99.99,,,-99.99,0.000000,,2013-07-19 03:32:00,
2013-07-18 21:42:00,66.0,63.0,-100.00,SSE,167,5.0,9.0,91,-99.99,,,-99.99,0.000000,,2013-07-19 03:42:00,
2013-07-18 21:52:00,65.0,62.0,-100.00,South,173,6.0,11.0,90,-99.99,,,-99.99,0.000000,,2013-07-19 03:52:00,
2013-07-18 22:02:00,65.0,62.0,-100.00,South,173,6.0,11.0,90,-99.99,,,-99.99,0.000000,,2013-07-19 04:02:00,
2013-07-18 22:12:00,65.0,62.0,-100.00,South,176,5.0,9.0,89,-99.99,,,-99.99,0.000000,,2013-07-19 04:12:00,
2013-07-18 22:22:00,65.0,62.0,-100.00,South,171,4.0,9.0,89,-99.99,,,-99.99,0.000000,,2013-07-19 04:22:00,
2013-07-18 22:33:00,65.0,62.0,-100.00,South,171,4.0,9.0,89,-99.99,,,-99.99,0.000000,,2013-07-19 04:33:00,
2013-07-18 22:43:00,65.0,62.0,-100.00,SSE,154,2.0,4.0,90,-99.99,,,-99.99,0.000000,,2013-07-19 04:43:00,
2013-07-18 22:52:00,65.0,62.0,-100.00,East,97,2.0,5.0,89,-99.99,,,-99.99,0.000000,,2013-07-19 04:52:00,
2013-07-18 23:02:00,65.0,62.0,-100.00,East,97,2.0,5.0,89,-99.99,,,-99.99,0.000000,,2013-07-19 05:02:00,
2013-07-18 23:11:00,65.0,62.0,-100.00,East,83,3.0,6.0,89,-99.99,,,-99.99,0.000000,,2013-07-19 05:11:00,
2013-07-18 23:22:00,65.0,61.0,-100.00,East,100,4.0,7.0,88,-99.99,,,-99.99,0.000000,,2013-07-19 05:22:00,
2013-07-18 23:32:00,65.0,61.0,-100.00,East,100,4.0,7.0,88,-99.99,,,-99.99,0.000000,,2013-07-19 05:32:00,
2013-07-18 23:43:00,65.0,62.0,-100.00,East,93,3.0,5.0,89,-99.99,,,-99.99,0.000000,,2013-07-19 05:43:00,